Portada
METAR-TAF:

METAR-TAF

Aeroports :

Greenville, Maine, Estats Units d'Amèrica

latitud: 45-28N, longitud: 069-35W, altitud: 427 m

Observació

L'informe es va fer fa 34 minuts, a les 00:56 UTC
Vent 4 kt del Sud
Temperatura 18°C
Humitat 56%
Pressió 1012 hPa

METAR: KGNR 190056Z AUTO 18004KT 18/09 A2989 RMK AO1 SLP122 T01780094

Hora: 21:30 (01:30 UTC)


TAF: manca

Observacions i pronòstics meteorològics de més de 4000 aeroports (METAR i TAF).

Les estacions disponibles són els punts grocs i vermells al mapa.

Posi el ratolí al punt desitjat per veure el nom de l'estació.

Feu clic per veure les observacions i els pronòstics meteorològics.

Per canviar el mapa: feu clic els botons verds amb una creu de color negre per apropar; al botó verd amb un guió per allunyar la imatge; o en les fletxes verdes per a mapes adjacents.


METAR-TAF: